Time,TemperatureF,DewpointF,PressureIn,WindDirection,WindDirectionDegrees,WindSpeedMPH,WindSpeedGustMPH,Humidity,HourlyPrecipIn,Conditions,Clouds,dailyrainin,SoftwareType,DateUTC
2013-02-17 00:01:00,41.0,37.0,30.14,North,0,0.0,2.0,86,0.00,,,0.03,,2013-02-17 08:01:00,
2013-02-17 00:11:00,41.0,37.0,30.14,North,0,0.0,2.0,86,0.00,,,0.03,,2013-02-17 08:11:00,
2013-02-17 00:21:00,40.0,36.0,30.14,North,0,0.0,2.0,87,0.00,,,0.03,,2013-02-17 08:21:00,
2013-02-17 00:31:00,40.0,36.0,30.14,South,180,1.0,3.0,87,0.00,,,0.03,,2013-02-17 08:31:00,
2013-02-17 00:41:00,40.0,36.0,30.14,South,180,1.0,3.0,87,0.00,,,0.03,,2013-02-17 08:41:00,
2013-02-17 00:52:00,40.0,36.0,30.15,North,0,0.0,3.0,86,0.00,,,0.03,,2013-02-17 08:52:00,
2013-02-17 01:01:00,40.0,36.0,30.15,North,0,0.0,3.0,87,0.00,,,0.03,,2013-02-17 09:01:00,
2013-02-17 01:11:00,40.0,36.0,30.15,North,0,0.0,3.0,87,0.00,,,0.03,,2013-02-17 09:11:00,
2013-02-17 01:21:00,39.0,36.0,30.15,North,0,0.0,3.0,88,0.00,,,0.03,,2013-02-17 09:21:00,
2013-02-17 01:31:00,39.0,36.0,30.15,SSE,163,1.0,2.0,88,0.00,,,0.03,,2013-02-17 09:31:00,
2013-02-17 01:41:00,39.0,36.0,30.15,SSE,163,1.0,2.0,88,0.00,,,0.03,,2013-02-17 09:41:00,
2013-02-17 01:52:00,40.0,37.0,30.15,North,0,0.0,3.0,88,0.00,,,0.03,,2013-02-17 09:52:00,
2013-02-17 02:01:00,40.0,37.0,30.16,North,0,0.0,2.0,88,0.00,,,0.03,,2013-02-17 10:01:00,
2013-02-17 02:11:00,40.0,36.0,30.16,East,99,1.0,5.0,87,0.00,,,0.03,,2013-02-17 10:11:00,
2013-02-17 02:21:00,40.0,36.0,30.16,East,99,1.0,5.0,87,0.00,,,0.03,,2013-02-17 10:21:00,
2013-02-17 02:31:00,40.0,36.0,30.16,ESE,112,2.0,5.0,86,0.00,,,0.03,,2013-02-17 10:31:00,
2013-02-17 02:41:00,40.0,36.0,30.16,ESE,112,2.0,5.0,86,0.00,,,0.03,,2013-02-17 10:41:00,
2013-02-17 02:52:00,41.0,37.0,30.17,North,0,0.0,4.0,85,0.00,,,0.03,,2013-02-17 10:52:00,
2013-02-17 03:01:00,41.0,37.0,30.16,North,0,0.0,5.0,84,0.00,,,0.03,,2013-02-17 11:01:00,
2013-02-17 03:11:00,41.0,37.0,30.16,North,0,0.0,5.0,84,0.00,,,0.03,,2013-02-17 11:11:00,
2013-02-17 03:21:00,41.0,37.0,30.16,ESE,119,2.0,6.0,84,0.00,,,0.03,,2013-02-17 11:21:00,
2013-02-17 03:32:00,41.0,37.0,30.16,North,0,0.0,5.0,84,0.00,,,0.03,,2013-02-17 11:32:00,
2013-02-17 03:41:00,41.0,37.0,30.16,North,0,0.0,5.0,84,0.00,,,0.03,,2013-02-17 11:41:00,
2013-02-17 03:52:00,40.0,36.0,30.16,South,177,1.0,5.0,84,0.00,,,0.03,,2013-02-17 11:52:00,
2013-02-17 04:02:00,40.0,36.0,30.16,North,0,0.0,4.0,85,0.00,,,0.03,,2013-02-17 12:02:00,
2013-02-17 04:11:00,40.0,36.0,30.16,North,0,0.0,4.0,85,0.00,,,0.03,,2013-02-17 12:11:00,
2013-02-17 04:22:00,40.0,36.0,30.16,North,0,0.0,5.0,85,0.00,,,0.03,,2013-02-17 12:22:00,
2013-02-17 04:31:00,40.0,36.0,30.16,SSE,160,1.0,6.0,85,0.00,,,0.03,,2013-02-17 12:31:00,
2013-02-17 04:42:00,40.0,36.0,30.16,SSE,160,1.0,6.0,85,0.00,,,0.03,,2013-02-17 12:42:00,
2013-02-17 04:52:00,40.0,36.0,30.16,SSE,168,1.0,6.0,84,0.00,,,0.03,,2013-02-17 12:52:00,
2013-02-17 05:01:00,40.0,36.0,30.16,ESE,115,1.0,4.0,85,0.00,,,0.03,,2013-02-17 13:01:00,
2013-02-17 05:11:00,40.0,36.0,30.16,ESE,115,1.0,4.0,85,0.00,,,0.03,,2013-02-17 13:11:00,
2013-02-17 05:21:00,40.0,36.0,30.16,North,0,0.0,3.0,85,0.00,,,0.03,,2013-02-17 13:21:00,
2013-02-17 05:32:00,40.0,36.0,30.16,North,0,0.0,5.0,85,0.00,,,0.03,,2013-02-17 13:32:00,
2013-02-17 05:41:00,40.0,36.0,30.16,North,0,0.0,5.0,85,0.00,,,0.03,,2013-02-17 13:41:00,
2013-02-17 05:52:00,40.0,36.0,30.16,SSE,168,3.0,5.0,84,0.00,,,0.03,,2013-02-17 13:52:00,
2013-02-17 06:01:00,40.0,35.0,30.17,SSE,155,1.0,5.0,83,0.00,,,0.03,,2013-02-17 14:01:00,
2013-02-17 06:11:00,40.0,35.0,30.17,SSE,155,1.0,5.0,83,0.00,,,0.03,,2013-02-17 14:11:00,
2013-02-17 06:21:00,40.0,35.0,30.17,North,0,0.0,4.0,83,0.00,,,0.03,,2013-02-17 14:21:00,
2013-02-17 06:32:00,40.0,35.0,30.17,SSE,156,2.0,6.0,83,0.00,,,0.03,,2013-02-17 14:32:00,
2013-02-17 06:42:00,40.0,35.0,30.17,SSE,156,2.0,6.0,83,0.00,,,0.03,,2013-02-17 14:42:00,
2013-02-17 06:52:00,40.0,36.0,30.17,South,182,1.0,4.0,84,0.00,,,0.03,,2013-02-17 14:52:00,
2013-02-17 07:01:00,40.0,36.0,30.16,ESE,116,2.0,5.0,84,0.00,,,0.03,,2013-02-17 15:01:00,
2013-02-17 07:11:00,40.0,36.0,30.16,ESE,116,2.0,5.0,84,0.00,,,0.03,,2013-02-17 15:11:00,
2013-02-17 07:21:00,40.0,36.0,30.16,ESE,114,1.0,4.0,84,0.00,,,0.03,,2013-02-17 15:21:00,
2013-02-17 07:31:00,40.0,36.0,30.16,North,0,0.0,4.0,85,0.00,,,0.03,,2013-02-17 15:31:00,
2013-02-17 07:41:00,40.0,36.0,30.16,North,0,0.0,4.0,85,0.00,,,0.03,,2013-02-17 15:41:00,
2013-02-17 07:52:00,40.0,36.0,30.16,South,171,2.0,6.0,84,0.00,,,0.03,,2013-02-17 15:52:00,
2013-02-17 08:01:00,40.0,36.0,30.17,SSE,161,1.0,7.0,84,0.00,,,0.03,,2013-02-17 16:01:00,
2013-02-17 08:11:00,40.0,36.0,30.17,SSE,161,1.0,7.0,84,0.00,,,0.03,,2013-02-17 16:11:00,
2013-02-17 08:21:00,40.0,36.0,30.17,South,185,3.0,7.0,84,0.00,,,0.03,,2013-02-17 16:21:00,
2013-02-17 08:31:00,40.0,36.0,30.18,SSE,156,1.0,5.0,85,0.00,,,0.03,,2013-02-17 16:31:00,
2013-02-17 08:41:00,40.0,36.0,30.18,SSE,156,1.0,5.0,85,0.00,,,0.03,,2013-02-17 16:41:00,
2013-02-17 08:51:00,40.0,36.0,30.17,South,189,1.0,5.0,86,0.00,,,0.03,,2013-02-17 16:51:00,
2013-02-17 09:02:00,40.0,36.0,30.17,South,183,2.0,6.0,87,0.00,,,0.03,,2013-02-17 17:02:00,
2013-02-17 09:11:00,40.0,36.0,30.17,South,183,2.0,6.0,87,0.00,,,0.03,,2013-02-17 17:11:00,
2013-02-17 09:21:00,40.0,36.0,30.17,South,182,1.0,5.0,87,0.00,,,0.03,,2013-02-17 17:21:00,
2013-02-17 09:31:00,40.0,37.0,30.19,SSW,207,3.0,5.0,88,0.00,,,0.03,,2013-02-17 17:31:00,
2013-02-17 09:41:00,40.0,37.0,30.19,SSW,207,3.0,5.0,88,0.00,,,0.03,,2013-02-17 17:41:00,
2013-02-17 09:52:00,40.0,37.0,30.19,South,187,3.0,6.0,88,0.00,,,0.03,,2013-02-17 17:52:00,
2013-02-17 10:01:00,40.0,37.0,30.19,South,176,2.0,6.0,88,0.00,,,0.03,,2013-02-17 18:01:00,
2013-02-17 10:11:00,40.0,37.0,30.19,South,176,2.0,6.0,88,0.00,,,0.03,,2013-02-17 18:11:00,
2013-02-17 10:21:00,40.0,36.0,30.19,South,170,1.0,7.0,87,0.00,,,0.03,,2013-02-17 18:21:00,
2013-02-17 10:33:00,40.0,36.0,30.19,South,180,1.0,7.0,87,0.00,,,0.03,,2013-02-17 18:33:00,
2013-02-17 10:41:00,40.0,36.0,30.19,South,180,1.0,7.0,87,0.00,,,0.03,,2013-02-17 18:41:00,
2013-02-17 10:52:00,40.0,37.0,30.19,South,185,2.0,5.0,88,0.00,,,0.03,,2013-02-17 18:52:00,
2013-02-17 11:01:00,39.0,36.0,30.19,SSE,158,1.0,8.0,90,0.00,,,0.03,,2013-02-17 19:01:00,
2013-02-17 11:11:00,39.0,36.0,30.19,SSE,158,1.0,8.0,90,0.00,,,0.03,,2013-02-17 19:11:00,
2013-02-17 11:21:00,39.0,37.0,30.19,SW,222,2.0,10.0,91,0.01,,,0.04,,2013-02-17 19:21:00,
2013-02-17 11:32:00,39.0,37.0,30.19,SSE,165,2.0,6.0,91,0.01,,,0.04,,2013-02-17 19:32:00,
2013-02-17 11:41:00,39.0,37.0,30.19,SSE,165,2.0,6.0,91,0.01,,,0.04,,2013-02-17 19:41:00,
2013-02-17 11:52:00,39.0,37.0,30.19,SE,145,1.0,3.0,92,0.01,,,0.04,,2013-02-17 19:52:00,
2013-02-17 12:01:00,40.0,38.0,30.19,SW,221,3.0,7.0,92,0.01,,,0.04,,2013-02-17 20:01:00,
2013-02-17 12:11:00,40.0,38.0,30.19,SW,221,3.0,7.0,92,0.01,,,0.04,,2013-02-17 20:11:00,
2013-02-17 12:21:00,40.0,37.0,30.18,SSW,200,2.0,5.0,90,0.00,,,0.04,,2013-02-17 20:21:00,
2013-02-17 12:31:00,40.0,37.0,30.18,South,186,2.0,6.0,90,0.00,,,0.04,,2013-02-17 20:31:00,
2013-02-17 12:42:00,40.0,37.0,30.18,South,186,2.0,6.0,90,0.00,,,0.04,,2013-02-17 20:42:00,
2013-02-17 12:52:00,41.0,38.0,30.17,SW,223,1.0,4.0,88,0.00,,,0.04,,2013-02-17 20:52:00,
2013-02-17 13:01:00,41.0,38.0,30.17,SSW,205,2.0,9.0,88,0.00,,,0.04,,2013-02-17 21:01:00,
2013-02-17 13:11:00,41.0,38.0,30.17,SSW,205,2.0,9.0,88,0.00,,,0.04,,2013-02-17 21:11:00,
2013-02-17 13:21:00,41.0,37.0,30.17,SSW,204,2.0,4.0,86,0.00,,,0.04,,2013-02-17 21:21:00,
2013-02-17 13:31:00,42.0,38.0,30.16,WSW,247,3.0,6.0,86,0.00,,,0.04,,2013-02-17 21:31:00,
2013-02-17 13:41:00,42.0,38.0,30.16,WSW,247,3.0,6.0,86,0.00,,,0.04,,2013-02-17 21:41:00,
2013-02-17 13:52:00,43.0,38.0,30.16,North,0,0.0,3.0,83,0.00,,,0.04,,2013-02-17 21:52:00,
2013-02-17 14:01:00,43.0,38.0,30.16,North,0,0.0,1.0,83,0.00,,,0.04,,2013-02-17 22:01:00,
2013-02-17 14:11:00,43.0,38.0,30.16,North,0,0.0,1.0,83,0.00,,,0.04,,2013-02-17 22:11:00,
2013-02-17 14:21:00,44.0,38.0,30.16,North,0,0.0,3.0,80,0.00,,,0.04,,2013-02-17 22:21:00,
2013-02-17 14:32:00,44.0,38.0,30.16,SW,227,3.0,5.0,78,0.00,,,0.04,,2013-02-17 22:32:00,
2013-02-17 14:41:00,44.0,38.0,30.16,SW,227,3.0,5.0,78,0.00,,,0.04,,2013-02-17 22:41:00,
2013-02-17 14:52:00,43.0,37.0,30.16,South,182,1.0,5.0,79,0.00,,,0.04,,2013-02-17 22:52:00,
2013-02-17 15:01:00,43.0,37.0,30.16,South,186,3.0,6.0,80,0.00,,,0.04,,2013-02-17 23:01:00,
2013-02-17 15:11:00,43.0,37.0,30.16,South,186,3.0,6.0,80,0.00,,,0.04,,2013-02-17 23:11:00,
2013-02-17 15:21:00,44.0,38.0,30.16,SSW,212,2.0,9.0,79,0.00,,,0.04,,2013-02-17 23:21:00,
2013-02-17 15:31:00,43.0,37.0,30.15,South,176,2.0,10.0,80,0.00,,,0.04,,2013-02-17 23:31:00,
2013-02-17 15:41:00,43.0,37.0,30.15,South,176,2.0,10.0,80,0.00,,,0.04,,2013-02-17 23:41:00,
2013-02-17 15:52:00,43.0,36.0,30.15,South,171,1.0,4.0,77,0.00,,,0.04,,2013-02-17 23:52:00,
2013-02-17 16:01:00,44.0,35.0,30.14,North,0,0.0,5.0,71,0.00,,,0.03,,2013-02-18 00:01:00,
2013-02-17 16:11:00,44.0,35.0,30.14,North,0,0.0,5.0,71,0.00,,,0.03,,2013-02-18 00:11:00,
2013-02-17 16:22:00,45.0,35.0,30.13,North,0,0.0,2.0,69,0.00,,,0.03,,2013-02-18 00:22:00,
2013-02-17 16:31:00,45.0,35.0,30.13,North,0,0.0,1.0,69,0.00,,,0.03,,2013-02-18 00:31:00,
2013-02-17 16:41:00,45.0,35.0,30.13,North,0,0.0,1.0,69,0.00,,,0.03,,2013-02-18 00:41:00,
2013-02-17 16:52:00,45.0,35.0,30.13,North,0,0.0,4.0,68,0.00,,,0.02,,2013-02-18 00:52:00,
2013-02-17 17:01:00,44.0,34.0,30.13,North,0,0.0,3.0,68,0.00,,,0.02,,2013-02-18 01:01:00,
2013-02-17 17:11:00,44.0,34.0,30.13,North,0,0.0,3.0,68,0.00,,,0.02,,2013-02-18 01:11:00,
2013-02-17 17:21:00,44.0,35.0,30.12,North,0,0.0,2.0,71,0.00,,,0.02,,2013-02-18 01:21:00,
2013-02-17 17:31:00,43.0,35.0,30.12,North,0,0.0,0.0,73,0.00,,,0.02,,2013-02-18 01:31:00,
2013-02-17 17:41:00,43.0,35.0,30.12,North,0,0.0,0.0,73,0.00,,,0.02,,2013-02-18 01:41:00,
2013-02-17 17:51:00,43.0,35.0,30.11,North,0,0.0,0.0,73,0.00,,,0.02,,2013-02-18 01:51:00,
2013-02-17 18:01:00,42.0,35.0,30.11,North,0,0.0,0.0,76,0.00,,,0.02,,2013-02-18 02:01:00,
2013-02-17 18:11:00,42.0,35.0,30.11,North,0,0.0,0.0,76,0.00,,,0.02,,2013-02-18 02:11:00,
2013-02-17 18:21:00,41.0,34.0,30.11,North,0,0.0,0.0,76,0.00,,,0.02,,2013-02-18 02:21:00,
2013-02-17 18:31:00,42.0,35.0,30.11,North,0,0.0,1.0,77,0.00,,,0.02,,2013-02-18 02:31:00,
2013-02-17 18:41:00,42.0,35.0,30.11,North,0,0.0,1.0,77,0.00,,,0.02,,2013-02-18 02:41:00,
2013-02-17 18:52:00,42.0,35.0,30.11,North,0,0.0,0.0,76,0.00,,,0.02,,2013-02-18 02:52:00,
2013-02-17 19:01:00,42.0,35.0,30.11,North,0,0.0,0.0,77,0.00,,,0.02,,2013-02-18 03:01:00,
2013-02-17 19:11:00,42.0,35.0,30.11,North,0,0.0,0.0,77,0.00,,,0.02,,2013-02-18 03:11:00,
2013-02-17 19:21:00,42.0,35.0,30.11,North,0,0.0,0.0,77,0.00,,,0.02,,2013-02-18 03:21:00,
2013-02-17 19:31:00,42.0,35.0,30.11,South,191,1.0,2.0,76,0.00,,,0.02,,2013-02-18 03:31:00,
2013-02-17 19:41:00,42.0,35.0,30.11,South,191,1.0,2.0,76,0.00,,,0.02,,2013-02-18 03:41:00,
2013-02-17 19:52:00,42.0,35.0,30.11,North,0,0.0,1.0,77,0.00,,,0.02,,2013-02-18 03:52:00,
2013-02-17 20:01:00,42.0,36.0,30.11,North,0,0.0,2.0,79,0.00,,,0.02,,2013-02-18 04:01:00,
2013-02-17 20:11:00,42.0,36.0,30.11,North,0,0.0,2.0,79,0.00,,,0.02,,2013-02-18 04:11:00,
2013-02-17 20:21:00,42.0,36.0,30.11,North,0,0.0,3.0,80,0.00,,,0.02,,2013-02-18 04:21:00,
2013-02-17 20:32:00,42.0,37.0,30.11,South,179,2.0,6.0,81,0.00,,,0.02,,2013-02-18 04:32:00,
2013-02-17 20:41:00,42.0,37.0,30.11,South,179,2.0,6.0,81,0.00,,,0.02,,2013-02-18 04:41:00,
2013-02-17 20:52:00,42.0,37.0,30.11,North,0,0.0,3.0,82,0.00,,,0.02,,2013-02-18 04:52:00,
2013-02-17 21:01:00,42.0,38.0,30.11,SSW,200,2.0,4.0,84,0.00,,,0.01,,2013-02-18 05:01:00,
2013-02-17 21:11:00,42.0,38.0,30.11,SSW,200,2.0,4.0,84,0.00,,,0.01,,2013-02-18 05:11:00,
2013-02-17 21:21:00,42.0,38.0,30.11,SW,226,2.0,5.0,84,0.00,,,0.01,,2013-02-18 05:21:00,
2013-02-17 21:31:00,42.0,38.0,30.11,SSW,192,2.0,6.0,84,0.00,,,0.01,,2013-02-18 05:31:00,
2013-02-17 21:41:00,42.0,38.0,30.11,SSW,192,2.0,6.0,84,0.00,,,0.01,,2013-02-18 05:41:00,
2013-02-17 21:52:00,42.0,38.0,30.11,SSE,167,1.0,6.0,84,0.00,,,0.01,,2013-02-18 05:52:00,
2013-02-17 22:01:00,42.0,38.0,30.09,SW,217,1.0,3.0,86,0.00,,,0.01,,2013-02-18 06:01:00,
2013-02-17 22:11:00,42.0,38.0,30.09,SW,217,1.0,3.0,86,0.00,,,0.01,,2013-02-18 06:11:00,
2013-02-17 22:21:00,41.0,37.0,30.09,North,0,0.0,4.0,86,0.00,,,0.01,,2013-02-18 06:21:00,
2013-02-17 22:31:00,41.0,37.0,30.09,North,0,0.0,1.0,87,0.00,,,0.01,,2013-02-18 06:31:00,
2013-02-17 22:41:00,41.0,38.0,30.09,South,170,1.0,2.0,88,0.00,,,0.01,,2013-02-18 06:41:00,
2013-02-17 22:51:00,41.0,38.0,30.09,South,170,1.0,2.0,88,0.00,,,0.01,,2013-02-18 06:51:00,
2013-02-17 23:01:00,41.0,38.0,30.08,South,170,1.0,3.0,88,0.00,,,0.01,,2013-02-18 07:01:00,
2013-02-17 23:11:00,41.0,38.0,30.08,South,170,1.0,3.0,88,0.00,,,0.01,,2013-02-18 07:11:00,
2013-02-17 23:21:00,41.0,38.0,30.08,North,0,0.0,0.0,89,0.00,,,0.01,,2013-02-18 07:21:00,
2013-02-17 23:31:00,41.0,38.0,30.08,North,0,0.0,1.0,89,0.00,,,0.01,,2013-02-18 07:31:00,
2013-02-17 23:42:00,41.0,38.0,30.08,North,0,0.0,1.0,89,0.00,,,0.01,,2013-02-18 07:42:00,
2013-02-17 23:51:00,40.0,37.0,30.07,North,0,0.0,1.0,89,0.00,,,0.01,,2013-02-18 07:51:00,